This is the latest recevied weather packets stored in our database for station/object KO4APQ. If no packets are shown the sender has not sent any weather packets the latest 10 day(s).
| Time | Temp. | Humidity | Pressure | Rain* | Wind** | Luminosity | Snow |
|---|---|---|---|---|---|---|---|
| 1777755624 | 18.33° C | 57% | 1011.5 hPa | 0 mm | - | 60 W/m² | - |
| 1777755018 | 18.89° C | 56% | 1011.7 hPa | 0 mm | - | 114 W/m² | - |
| 1777754109 | 20° C | 49% | 1011.6 hPa | 0 mm | - | 221 W/m² | - |
| 1777753806 | 21.11° C | 47% | 1011.4 hPa | 0 mm | - | 262 W/m² | - |
| 1777753502 | 20.56° C | 46% | 1011.5 hPa | 0 mm | - | 800 W/m² | - |
| 1777753200 | 20° C | 49% | 1011.7 hPa | 0 mm | - | 377 W/m² | - |
| 1777752896 | 20.56° C | 48% | 1011.8 hPa | 0 mm | - | 299 W/m² | - |
| 1777752593 | 20° C | 49% | 1011.7 hPa | 0 mm | - | 808 W/m² | - |
| 1777752289 | 20° C | 49% | 1011.7 hPa | 0 mm | - | 769 W/m² | - |
| 1777751986 | 20° C | 51% | 1011.8 hPa | 0 mm | - | 786 W/m² | - |
| 1777751684 | 19.44° C | 50% | 1012 hPa | 0 mm | - | 809 W/m² | - |
| 1777751380 | 18.89° C | 53% | 1012.1 hPa | 0 mm | - | 493 W/m² | - |
| 1777750470 | 18.89° C | 52% | 1012.2 hPa | 0 mm | - | 307 W/m² | - |
| 1777750165 | 18.89° C | 50% | 1012.1 hPa | 0 mm | - | 299 W/m² | - |
| 1777749862 | 18.89° C | 51% | 1012.3 hPa | 0 mm | - | 287 W/m² | - |
| 1777749559 | 18.33° C | 51% | 1012.4 hPa | 0 mm | - | 344 W/m² | - |
| 1777749257 | 18.89° C | 51% | 1012.1 hPa | 0 mm | - | 363 W/m² | - |
| 1777748955 | 18.89° C | 53% | 1012.1 hPa | 0 mm | - | 437 W/m² | - |
| 1777748652 | 18.33° C | 54% | 1012.4 hPa | 0 mm | - | 312 W/m² | - |
| 1777748348 | 18.33° C | 54% | 1012.3 hPa | 0 mm | - | 331 W/m² | - |
| 1777747436 | 19.44° C | 50% | 1012.6 hPa | 0 mm | - | 1123 W/m² | - |
| 1777747133 | 18.89° C | 51% | 1012.3 hPa | 0 mm | - | 1088 W/m² | - |
| 1777744706 | 17.78° C | 53% | 1012.9 hPa | 0 mm | - | 1026 W/m² | - |
| 1777741673 | 16.67° C | 57% | 1013.8 hPa | 0 mm | - | 349 W/m² | - |
| 1777739852 | 16.11° C | 60% | 1013.9 hPa | 0 mm | - | 295 W/m² | - |
* Rain latest hour (hover to see other rain measurements)
** Current wind speed in m/s (hover to see current wind gust speed)